sensor_id;sensor_type;location;lat;lon;timestamp;P1;durP1;ratioP1;P2;durP2;ratioP2
10659;SDS011;5378;53.206;13.316;2022-09-12T00:01:54;2.30;;;2.00;;
10659;SDS011;5378;53.206;13.316;2022-09-12T00:04:43;4.47;;;1.90;;
10659;SDS011;5378;53.206;13.316;2022-09-12T00:07:30;4.80;;;1.40;;
10659;SDS011;5378;53.206;13.316;2022-09-12T00:10:17;2.47;;;1.60;;
10659;SDS011;5378;53.206;13.316;2022-09-12T00:13:04;2.73;;;2.10;;
10659;SDS011;5378;53.206;13.316;2022-09-12T00:15:52;1.50;;;1.33;;
10659;SDS011;5378;53.206;13.316;2022-09-12T00:18:39;1.60;;;1.50;;
10659;SDS011;5378;53.206;13.316;2022-09-12T00:21:28;1.70;;;1.60;;
10659;SDS011;5378;53.206;13.316;2022-09-12T00:24:15;2.40;;;2.00;;
10659;SDS011;5378;53.206;13.316;2022-09-12T00:27:03;2.27;;;2.07;;
10659;SDS011;5378;53.206;13.316;2022-09-12T00:29:50;1.87;;;1.50;;
10659;SDS011;5378;53.206;13.316;2022-09-12T00:32:37;5.20;;;1.70;;
10659;SDS011;5378;53.206;13.316;2022-09-12T00:35:24;1.67;;;1.33;;
10659;SDS011;5378;53.206;13.316;2022-09-12T00:38:13;2.30;;;1.63;;
10659;SDS011;5378;53.206;13.316;2022-09-12T00:41:01;3.40;;;2.13;;
10659;SDS011;5378;53.206;13.316;2022-09-12T00:43:49;3.60;;;1.50;;
10659;SDS011;5378;53.206;13.316;2022-09-12T00:46:38;2.40;;;1.93;;
10659;SDS011;5378;53.206;13.316;2022-09-12T00:49:30;1.73;;;1.63;;
10659;SDS011;5378;53.206;13.316;2022-09-12T00:52:22;1.80;;;1.53;;
10659;SDS011;5378;53.206;13.316;2022-09-12T00:55:14;1.70;;;1.60;;
10659;SDS011;5378;53.206;13.316;2022-09-12T00:58:05;5.63;;;1.90;;
10659;SDS011;5378;53.206;13.316;2022-09-12T01:00:58;2.00;;;1.80;;
10659;SDS011;5378;53.206;13.316;2022-09-12T01:03:45;2.67;;;1.70;;
10659;SDS011;5378;53.206;13.316;2022-09-12T01:06:33;2.27;;;2.07;;
10659;SDS011;5378;53.206;13.316;2022-09-12T01:09:22;1.93;;;1.70;;
10659;SDS011;5378;53.206;13.316;2022-09-12T01:12:12;2.30;;;2.10;;
10659;SDS011;5378;53.206;13.316;2022-09-12T01:15:00;2.13;;;1.77;;
10659;SDS011;5378;53.206;13.316;2022-09-12T01:17:51;2.83;;;2.53;;
10659;SDS011;5378;53.206;13.316;2022-09-12T01:20:59;2.20;;;2.00;;
10659;SDS011;5378;53.206;13.316;2022-09-12T01:24:04;2.63;;;2.23;;
10659;SDS011;5378;53.206;13.316;2022-09-12T01:27:24;2.00;;;1.80;;
10659;SDS011;5378;53.206;13.316;2022-09-12T01:30:24;2.20;;;2.00;;
10659;SDS011;5378;53.206;13.316;2022-09-12T01:33:32;4.77;;;2.40;;
10659;SDS011;5378;53.206;13.316;2022-09-12T01:36:32;2.70;;;2.50;;
10659;SDS011;5378;53.206;13.316;2022-09-12T01:39:26;2.13;;;1.93;;
10659;SDS011;5378;53.206;13.316;2022-09-12T01:42:18;3.03;;;2.20;;
10659;SDS011;5378;53.206;13.316;2022-09-12T01:45:13;4.10;;;2.30;;
10659;SDS011;5378;53.206;13.316;2022-09-12T01:48:09;5.13;;;2.90;;
10659;SDS011;5378;53.206;13.316;2022-09-12T01:51:02;2.60;;;2.40;;
10659;SDS011;5378;53.206;13.316;2022-09-12T01:53:54;2.87;;;2.47;;
10659;SDS011;5378;53.206;13.316;2022-09-12T01:56:49;3.93;;;3.00;;
10659;SDS011;5378;53.206;13.316;2022-09-12T01:59:42;4.97;;;2.57;;
10659;SDS011;5378;53.206;13.316;2022-09-12T02:02:34;3.83;;;2.87;;
10659;SDS011;5378;53.206;13.316;2022-09-12T02:05:27;4.07;;;2.60;;
10659;SDS011;5378;53.206;13.316;2022-09-12T02:08:17;3.90;;;2.87;;
10659;SDS011;5378;53.206;13.316;2022-09-12T02:11:09;4.50;;;2.43;;
10659;SDS011;5378;53.206;13.316;2022-09-12T02:13:57;3.47;;;2.87;;
10659;SDS011;5378;53.206;13.316;2022-09-12T02:16:50;4.07;;;3.07;;
10659;SDS011;5378;53.206;13.316;2022-09-12T02:19:42;3.20;;;2.70;;
10659;SDS011;5378;53.206;13.316;2022-09-12T02:22:34;6.33;;;2.90;;
10659;SDS011;5378;53.206;13.316;2022-09-12T02:25:23;4.00;;;3.17;;
10659;SDS011;5378;53.206;13.316;2022-09-12T02:28:13;7.70;;;3.83;;
10659;SDS011;5378;53.206;13.316;2022-09-12T02:31:06;3.50;;;2.63;;
10659;SDS011;5378;53.206;13.316;2022-09-12T02:34:02;3.33;;;2.57;;
10659;SDS011;5378;53.206;13.316;2022-09-12T02:36:58;4.10;;;2.80;;
10659;SDS011;5378;53.206;13.316;2022-09-12T02:39:54;3.97;;;1.90;;
10659;SDS011;5378;53.206;13.316;2022-09-12T02:42:42;4.10;;;2.50;;
10659;SDS011;5378;53.206;13.316;2022-09-12T02:45:29;2.70;;;2.10;;
10659;SDS011;5378;53.206;13.316;2022-09-12T02:48:19;3.30;;;2.43;;
10659;SDS011;5378;53.206;13.316;2022-09-12T02:51:09;4.70;;;2.50;;
10659;SDS011;5378;53.206;13.316;2022-09-12T02:53:57;2.13;;;1.93;;
10659;SDS011;5378;53.206;13.316;2022-09-12T02:56:46;7.63;;;3.53;;
10659;SDS011;5378;53.206;13.316;2022-09-12T02:59:33;4.43;;;2.90;;
10659;SDS011;5378;53.206;13.316;2022-09-12T03:02:31;3.60;;;2.83;;
10659;SDS011;5378;53.206;13.316;2022-09-12T03:05:29;3.70;;;3.07;;
10659;SDS011;5378;53.206;13.316;2022-09-12T03:08:35;4.30;;;3.00;;
10659;SDS011;5378;53.206;13.316;2022-09-12T03:11:44;3.53;;;2.60;;
10659;SDS011;5378;53.206;13.316;2022-09-12T03:14:47;2.97;;;2.67;;
10659;SDS011;5378;53.206;13.316;2022-09-12T03:17:50;4.37;;;3.00;;
10659;SDS011;5378;53.206;13.316;2022-09-12T03:20:49;4.67;;;3.30;;
10659;SDS011;5378;53.206;13.316;2022-09-12T03:23:42;5.17;;;3.30;;
10659;SDS011;5378;53.206;13.316;2022-09-12T03:26:37;3.20;;;2.87;;
10659;SDS011;5378;53.206;13.316;2022-09-12T03:29:29;5.90;;;3.00;;
10659;SDS011;5378;53.206;13.316;2022-09-12T03:32:17;3.40;;;2.97;;
10659;SDS011;5378;53.206;13.316;2022-09-12T03:35:04;3.97;;;3.03;;
10659;SDS011;5378;53.206;13.316;2022-09-12T03:37:52;3.77;;;2.70;;
10659;SDS011;5378;53.206;13.316;2022-09-12T03:40:39;3.03;;;2.43;;
10659;SDS011;5378;53.206;13.316;2022-09-12T03:43:27;5.33;;;2.77;;
10659;SDS011;5378;53.206;13.316;2022-09-12T03:46:16;3.97;;;2.83;;
10659;SDS011;5378;53.206;13.316;2022-09-12T03:49:03;5.73;;;3.10;;
10659;SDS011;5378;53.206;13.316;2022-09-12T03:51:50;6.60;;;4.07;;
10659;SDS011;5378;53.206;13.316;2022-09-12T03:54:37;8.93;;;4.37;;
10659;SDS011;5378;53.206;13.316;2022-09-12T03:57:24;10.93;;;5.30;;
10659;SDS011;5378;53.206;13.316;2022-09-12T04:00:12;7.63;;;4.50;;
10659;SDS011;5378;53.206;13.316;2022-09-12T04:03:03;8.97;;;5.10;;
10659;SDS011;5378;53.206;13.316;2022-09-12T04:05:50;11.63;;;5.07;;
10659;SDS011;5378;53.206;13.316;2022-09-12T04:08:37;9.73;;;5.47;;
10659;SDS011;5378;53.206;13.316;2022-09-12T04:11:24;8.37;;;5.50;;
10659;SDS011;5378;53.206;13.316;2022-09-12T04:14:12;6.50;;;4.40;;
10659;SDS011;5378;53.206;13.316;2022-09-12T04:16:59;8.57;;;5.00;;
10659;SDS011;5378;53.206;13.316;2022-09-12T04:19:47;7.90;;;4.80;;
10659;SDS011;5378;53.206;13.316;2022-09-12T04:22:34;8.13;;;4.00;;
10659;SDS011;5378;53.206;13.316;2022-09-12T04:25:22;7.00;;;4.20;;
10659;SDS011;5378;53.206;13.316;2022-09-12T04:28:09;6.57;;;3.93;;
10659;SDS011;5378;53.206;13.316;2022-09-12T04:30:59;6.90;;;4.20;;
10659;SDS011;5378;53.206;13.316;2022-09-12T04:33:53;8.67;;;3.80;;
10659;SDS011;5378;53.206;13.316;2022-09-12T04:36:42;5.90;;;3.77;;
10659;SDS011;5378;53.206;13.316;2022-09-12T04:39:30;5.90;;;4.00;;
10659;SDS011;5378;53.206;13.316;2022-09-12T04:42:17;8.40;;;4.50;;
10659;SDS011;5378;53.206;13.316;2022-09-12T04:45:04;6.87;;;4.07;;
10659;SDS011;5378;53.206;13.316;2022-09-12T04:47:52;16.00;;;4.23;;
10659;SDS011;5378;53.206;13.316;2022-09-12T04:50:39;21.57;;;3.70;;
10659;SDS011;5378;53.206;13.316;2022-09-12T04:53:28;8.87;;;5.03;;
10659;SDS011;5378;53.206;13.316;2022-09-12T04:56:15;9.83;;;3.50;;
10659;SDS011;5378;53.206;13.316;2022-09-12T04:59:03;8.70;;;4.40;;
10659;SDS011;5378;53.206;13.316;2022-09-12T05:01:51;9.33;;;4.37;;
10659;SDS011;5378;53.206;13.316;2022-09-12T05:04:38;6.50;;;3.73;;
10659;SDS011;5378;53.206;13.316;2022-09-12T05:07:25;6.37;;;3.20;;
10659;SDS011;5378;53.206;13.316;2022-09-12T05:10:14;7.00;;;3.77;;
10659;SDS011;5378;53.206;13.316;2022-09-12T05:13:02;10.30;;;4.10;;
10659;SDS011;5378;53.206;13.316;2022-09-12T05:15:53;5.30;;;3.40;;
10659;SDS011;5378;53.206;13.316;2022-09-12T05:18:40;8.00;;;4.10;;
10659;SDS011;5378;53.206;13.316;2022-09-12T05:21:28;8.13;;;4.80;;
10659;SDS011;5378;53.206;13.316;2022-09-12T05:24:15;8.40;;;4.47;;
10659;SDS011;5378;53.206;13.316;2022-09-12T05:27:04;5.67;;;3.40;;
10659;SDS011;5378;53.206;13.316;2022-09-12T05:29:51;6.20;;;3.60;;
10659;SDS011;5378;53.206;13.316;2022-09-12T05:32:38;6.83;;;3.50;;
10659;SDS011;5378;53.206;13.316;2022-09-12T05:35:26;6.77;;;3.83;;
10659;SDS011;5378;53.206;13.316;2022-09-12T05:38:12;8.80;;;3.63;;
10659;SDS011;5378;53.206;13.316;2022-09-12T05:41:03;7.17;;;3.53;;
10659;SDS011;5378;53.206;13.316;2022-09-12T05:43:53;6.40;;;3.70;;
10659;SDS011;5378;53.206;13.316;2022-09-12T05:46:42;7.43;;;4.10;;
10659;SDS011;5378;53.206;13.316;2022-09-12T05:49:31;5.27;;;3.10;;
10659;SDS011;5378;53.206;13.316;2022-09-12T05:52:18;6.60;;;3.87;;
10659;SDS011;5378;53.206;13.316;2022-09-12T05:55:05;7.17;;;4.10;;
10659;SDS011;5378;53.206;13.316;2022-09-12T05:57:53;7.57;;;4.17;;
10659;SDS011;5378;53.206;13.316;2022-09-12T06:00:42;8.30;;;4.43;;
10659;SDS011;5378;53.206;13.316;2022-09-12T06:03:30;7.67;;;4.07;;
10659;SDS011;5378;53.206;13.316;2022-09-12T06:06:18;8.97;;;5.00;;
10659;SDS011;5378;53.206;13.316;2022-09-12T06:09:06;7.50;;;4.47;;
10659;SDS011;5378;53.206;13.316;2022-09-12T06:11:54;8.97;;;4.17;;
10659;SDS011;5378;53.206;13.316;2022-09-12T06:14:41;7.83;;;4.57;;
10659;SDS011;5378;53.206;13.316;2022-09-12T06:17:30;9.20;;;5.23;;
10659;SDS011;5378;53.206;13.316;2022-09-12T06:20:17;7.20;;;3.87;;
10659;SDS011;5378;53.206;13.316;2022-09-12T06:23:05;8.20;;;4.60;;
10659;SDS011;5378;53.206;13.316;2022-09-12T06:25:52;9.43;;;4.53;;
10659;SDS011;5378;53.206;13.316;2022-09-12T06:28:40;12.77;;;6.10;;
10659;SDS011;5378;53.206;13.316;2022-09-12T06:31:29;9.10;;;5.20;;
10659;SDS011;5378;53.206;13.316;2022-09-12T06:34:20;11.80;;;6.30;;
10659;SDS011;5378;53.206;13.316;2022-09-12T06:37:07;14.90;;;5.40;;
10659;SDS011;5378;53.206;13.316;2022-09-12T06:39:54;17.33;;;6.43;;
10659;SDS011;5378;53.206;13.316;2022-09-12T06:42:41;10.17;;;5.77;;
10659;SDS011;5378;53.206;13.316;2022-09-12T06:45:31;12.07;;;5.00;;
10659;SDS011;5378;53.206;13.316;2022-09-12T06:48:18;7.83;;;4.87;;
10659;SDS011;5378;53.206;13.316;2022-09-12T06:51:08;9.80;;;5.00;;
10659;SDS011;5378;53.206;13.316;2022-09-12T06:53:57;10.83;;;4.97;;
10659;SDS011;5378;53.206;13.316;2022-09-12T06:56:45;10.50;;;5.07;;
10659;SDS011;5378;53.206;13.316;2022-09-12T06:59:32;9.87;;;4.67;;
10659;SDS011;5378;53.206;13.316;2022-09-12T07:02:19;7.43;;;4.47;;
10659;SDS011;5378;53.206;13.316;2022-09-12T07:05:06;8.80;;;5.13;;
10659;SDS011;5378;53.206;13.316;2022-09-12T07:07:56;8.30;;;4.67;;
10659;SDS011;5378;53.206;13.316;2022-09-12T07:10:43;7.63;;;4.40;;
10659;SDS011;5378;53.206;13.316;2022-09-12T07:13:30;10.53;;;5.37;;
10659;SDS011;5378;53.206;13.316;2022-09-12T07:16:18;6.90;;;4.33;;
10659;SDS011;5378;53.206;13.316;2022-09-12T07:19:06;8.93;;;5.27;;
10659;SDS011;5378;53.206;13.316;2022-09-12T07:21:54;9.40;;;4.67;;
10659;SDS011;5378;53.206;13.316;2022-09-12T07:24:44;7.57;;;5.17;;
10659;SDS011;5378;53.206;13.316;2022-09-12T07:27:31;13.10;;;5.87;;
10659;SDS011;5378;53.206;13.316;2022-09-12T07:30:18;13.77;;;5.50;;
10659;SDS011;5378;53.206;13.316;2022-09-12T07:33:05;7.23;;;4.93;;
10659;SDS011;5378;53.206;13.316;2022-09-12T07:35:53;11.60;;;5.80;;
10659;SDS011;5378;53.206;13.316;2022-09-12T07:38:40;9.60;;;5.73;;
10659;SDS011;5378;53.206;13.316;2022-09-12T07:41:30;7.63;;;4.30;;
10659;SDS011;5378;53.206;13.316;2022-09-12T07:44:18;9.80;;;4.97;;
10659;SDS011;5378;53.206;13.316;2022-09-12T07:47:06;7.93;;;3.90;;
10659;SDS011;5378;53.206;13.316;2022-09-12T07:49:53;8.57;;;4.90;;
10659;SDS011;5378;53.206;13.316;2022-09-12T07:52:41;8.63;;;4.40;;
10659;SDS011;5378;53.206;13.316;2022-09-12T07:55:28;7.23;;;3.97;;
10659;SDS011;5378;53.206;13.316;2022-09-12T07:58:16;6.40;;;4.20;;
10659;SDS011;5378;53.206;13.316;2022-09-12T08:01:04;6.10;;;4.17;;
10659;SDS011;5378;53.206;13.316;2022-09-12T08:03:54;6.30;;;3.40;;
10659;SDS011;5378;53.206;13.316;2022-09-12T08:06:42;6.70;;;3.53;;
10659;SDS011;5378;53.206;13.316;2022-09-12T08:09:29;4.20;;;3.20;;
10659;SDS011;5378;53.206;13.316;2022-09-12T08:12:16;5.77;;;4.00;;
10659;SDS011;5378;53.206;13.316;2022-09-12T08:15:06;4.50;;;3.83;;
10659;SDS011;5378;53.206;13.316;2022-09-12T08:17:54;4.27;;;3.20;;
10659;SDS011;5378;53.206;13.316;2022-09-12T08:20:41;2.70;;;2.30;;
10659;SDS011;5378;53.206;13.316;2022-09-12T08:23:28;3.30;;;2.47;;
10659;SDS011;5378;53.206;13.316;2022-09-12T08:26:16;3.20;;;2.60;;
10659;SDS011;5378;53.206;13.316;2022-09-12T08:29:03;2.30;;;1.83;;
10659;SDS011;5378;53.206;13.316;2022-09-12T08:31:51;3.50;;;2.23;;
10659;SDS011;5378;53.206;13.316;2022-09-12T08:34:41;2.43;;;1.60;;
10659;SDS011;5378;53.206;13.316;2022-09-12T08:37:28;1.97;;;1.77;;
10659;SDS011;5378;53.206;13.316;2022-09-12T08:40:15;4.40;;;2.30;;
10659;SDS011;5378;53.206;13.316;2022-09-12T08:43:06;1.43;;;1.33;;
10659;SDS011;5378;53.206;13.316;2022-09-12T08:46:01;1.77;;;1.40;;
10659;SDS011;5378;53.206;13.316;2022-09-12T08:48:54;2.50;;;1.60;;
10659;SDS011;5378;53.206;13.316;2022-09-12T08:51:44;3.03;;;1.63;;
10659;SDS011;5378;53.206;13.316;2022-09-12T08:54:31;2.83;;;1.50;;
10659;SDS011;5378;53.206;13.316;2022-09-12T08:57:19;1.43;;;1.30;;
10659;SDS011;5378;53.206;13.316;2022-09-12T09:00:11;1.70;;;1.57;;
10659;SDS011;5378;53.206;13.316;2022-09-12T09:03:05;2.30;;;1.60;;
10659;SDS011;5378;53.206;13.316;2022-09-12T09:06:09;3.00;;;1.67;;
10659;SDS011;5378;53.206;13.316;2022-09-12T09:09:08;1.77;;;1.33;;
10659;SDS011;5378;53.206;13.316;2022-09-12T09:11:59;1.03;;;0.93;;
10659;SDS011;5378;53.206;13.316;2022-09-12T09:15:00;1.00;;;0.90;;
10659;SDS011;5378;53.206;13.316;2022-09-12T09:17:57;1.57;;;1.30;;
10659;SDS011;5378;53.206;13.316;2022-09-12T09:20:49;3.90;;;1.57;;
10659;SDS011;5378;53.206;13.316;2022-09-12T09:23:39;1.40;;;1.10;;
10659;SDS011;5378;53.206;13.316;2022-09-12T09:26:33;2.37;;;1.30;;
10659;SDS011;5378;53.206;13.316;2022-09-12T09:29:27;1.37;;;1.10;;
10659;SDS011;5378;53.206;13.316;2022-09-12T09:32:23;1.13;;;0.90;;
10659;SDS011;5378;53.206;13.316;2022-09-12T09:35:14;1.80;;;1.23;;
10659;SDS011;5378;53.206;13.316;2022-09-12T09:38:07;1.60;;;1.50;;
10659;SDS011;5378;53.206;13.316;2022-09-12T09:41:19;1.00;;;0.90;;
10659;SDS011;5378;53.206;13.316;2022-09-12T09:44:16;1.27;;;1.10;;
10659;SDS011;5378;53.206;13.316;2022-09-12T09:47:04;1.30;;;0.97;;
10659;SDS011;5378;53.206;13.316;2022-09-12T09:49:51;1.10;;;1.00;;
10659;SDS011;5378;53.206;13.316;2022-09-12T09:52:38;1.43;;;1.10;;
10659;SDS011;5378;53.206;13.316;2022-09-12T09:55:27;1.03;;;0.93;;
10659;SDS011;5378;53.206;13.316;2022-09-12T09:58:30;2.00;;;0.87;;
10659;SDS011;5378;53.206;13.316;2022-09-12T10:01:18;1.03;;;0.80;;
10659;SDS011;5378;53.206;13.316;2022-09-12T10:04:09;2.13;;;0.97;;
10659;SDS011;5378;53.206;13.316;2022-09-12T10:07:04;2.50;;;1.13;;
10659;SDS011;5378;53.206;13.316;2022-09-12T10:10:03;1.30;;;1.20;;
10659;SDS011;5378;53.206;13.316;2022-09-12T10:13:07;3.40;;;1.00;;
10659;SDS011;5378;53.206;13.316;2022-09-12T10:15:57;1.23;;;1.10;;
10659;SDS011;5378;53.206;13.316;2022-09-12T10:18:47;1.27;;;1.10;;
10659;SDS011;5378;53.206;13.316;2022-09-12T10:21:35;1.70;;;1.00;;
10659;SDS011;5378;53.206;13.316;2022-09-12T10:24:27;5.13;;;1.47;;
10659;SDS011;5378;53.206;13.316;2022-09-12T10:27:19;1.40;;;1.17;;
10659;SDS011;5378;53.206;13.316;2022-09-12T10:30:14;1.27;;;0.93;;
10659;SDS011;5378;53.206;13.316;2022-09-12T10:33:04;2.40;;;1.10;;
10659;SDS011;5378;53.206;13.316;2022-09-12T10:35:57;7.23;;;1.20;;
10659;SDS011;5378;53.206;13.316;2022-09-12T10:38:48;1.90;;;1.20;;
10659;SDS011;5378;53.206;13.316;2022-09-12T10:41:37;1.00;;;0.90;;
10659;SDS011;5378;53.206;13.316;2022-09-12T10:44:26;0.80;;;0.77;;
10659;SDS011;5378;53.206;13.316;2022-09-12T10:47:18;1.60;;;1.20;;
10659;SDS011;5378;53.206;13.316;2022-09-12T10:50:19;1.30;;;1.13;;
10659;SDS011;5378;53.206;13.316;2022-09-12T10:53:12;0.80;;;0.60;;
10659;SDS011;5378;53.206;13.316;2022-09-12T10:56:06;0.83;;;0.83;;
10659;SDS011;5378;53.206;13.316;2022-09-12T10:59:00;1.30;;;1.00;;
10659;SDS011;5378;53.206;13.316;2022-09-12T11:01:57;1.50;;;0.77;;
10659;SDS011;5378;53.206;13.316;2022-09-12T11:04:49;1.83;;;1.20;;
10659;SDS011;5378;53.206;13.316;2022-09-12T11:07:45;1.67;;;1.10;;
10659;SDS011;5378;53.206;13.316;2022-09-12T11:10:36;1.40;;;0.80;;
10659;SDS011;5378;53.206;13.316;2022-09-12T11:13:38;3.63;;;1.07;;
10659;SDS011;5378;53.206;13.316;2022-09-12T11:16:38;1.47;;;0.80;;
10659;SDS011;5378;53.206;13.316;2022-09-12T11:23:12;1.37;;;0.87;;
10659;SDS011;5378;53.206;13.316;2022-09-12T11:26:17;1.10;;;0.90;;
10659;SDS011;5378;53.206;13.316;2022-09-12T11:29:14;1.00;;;0.90;;
10659;SDS011;5378;53.206;13.316;2022-09-12T11:32:25;2.90;;;1.10;;
10659;SDS011;5378;53.206;13.316;2022-09-12T11:35:27;1.37;;;0.90;;
10659;SDS011;5378;53.206;13.316;2022-09-12T11:38:23;1.13;;;0.90;;
10659;SDS011;5378;53.206;13.316;2022-09-12T11:41:20;1.17;;;1.03;;
10659;SDS011;5378;53.206;13.316;2022-09-12T11:44:17;1.30;;;1.00;;
10659;SDS011;5378;53.206;13.316;2022-09-12T11:47:09;1.30;;;0.90;;
10659;SDS011;5378;53.206;13.316;2022-09-12T11:49:58;1.20;;;0.77;;
10659;SDS011;5378;53.206;13.316;2022-09-12T11:52:49;1.30;;;1.20;;
10659;SDS011;5378;53.206;13.316;2022-09-12T11:55:42;1.90;;;1.07;;
10659;SDS011;5378;53.206;13.316;2022-09-12T11:58:35;0.93;;;0.77;;
10659;SDS011;5378;53.206;13.316;2022-09-12T12:01:25;0.90;;;0.77;;
10659;SDS011;5378;53.206;13.316;2022-09-12T12:04:19;1.00;;;0.70;;
10659;SDS011;5378;53.206;13.316;2022-09-12T12:07:13;1.43;;;1.07;;
10659;SDS011;5378;53.206;13.316;2022-09-12T12:10:00;1.50;;;0.93;;
10659;SDS011;5378;53.206;13.316;2022-09-12T12:12:49;0.97;;;0.90;;
10659;SDS011;5378;53.206;13.316;2022-09-12T12:15:38;0.80;;;0.80;;
10659;SDS011;5378;53.206;13.316;2022-09-12T12:18:26;0.90;;;0.60;;
10659;SDS011;5378;53.206;13.316;2022-09-12T12:21:18;1.23;;;0.67;;
10659;SDS011;5378;53.206;13.316;2022-09-12T12:24:15;2.10;;;0.60;;
10659;SDS011;5378;53.206;13.316;2022-09-12T12:27:20;0.80;;;0.80;;
10659;SDS011;5378;53.206;13.316;2022-09-12T12:33:53;1.10;;;0.80;;
10659;SDS011;5378;53.206;13.316;2022-09-12T12:36:49;0.83;;;0.50;;
10659;SDS011;5378;53.206;13.316;2022-09-12T12:43:00;1.47;;;1.03;;
10659;SDS011;5378;53.206;13.316;2022-09-12T12:46:14;0.70;;;0.60;;
10659;SDS011;5378;53.206;13.316;2022-09-12T12:49:06;1.43;;;0.80;;
10659;SDS011;5378;53.206;13.316;2022-09-12T12:51:57;2.50;;;1.13;;
10659;SDS011;5378;53.206;13.316;2022-09-12T12:54:48;1.70;;;0.93;;
10659;SDS011;5378;53.206;13.316;2022-09-12T12:57:47;2.87;;;1.23;;
10659;SDS011;5378;53.206;13.316;2022-09-12T13:00:36;1.47;;;0.90;;
10659;SDS011;5378;53.206;13.316;2022-09-12T13:03:26;1.00;;;0.70;;
10659;SDS011;5378;53.206;13.316;2022-09-12T13:06:21;1.00;;;0.90;;
10659;SDS011;5378;53.206;13.316;2022-09-12T13:09:18;1.20;;;1.00;;
10659;SDS011;5378;53.206;13.316;2022-09-12T13:12:08;1.57;;;0.70;;
10659;SDS011;5378;53.206;13.316;2022-09-12T13:15:05;2.80;;;1.40;;
10659;SDS011;5378;53.206;13.316;2022-09-12T13:18:31;0.93;;;0.67;;
10659;SDS011;5378;53.206;13.316;2022-09-12T13:21:28;1.03;;;0.83;;
10659;SDS011;5378;53.206;13.316;2022-09-12T13:24:15;1.17;;;1.07;;
10659;SDS011;5378;53.206;13.316;2022-09-12T13:27:12;1.43;;;0.90;;
10659;SDS011;5378;53.206;13.316;2022-09-12T13:30:06;0.80;;;0.70;;
10659;SDS011;5378;53.206;13.316;2022-09-12T13:32:54;2.40;;;0.70;;
10659;SDS011;5378;53.206;13.316;2022-09-12T13:36:04;1.40;;;1.00;;
10659;SDS011;5378;53.206;13.316;2022-09-12T13:39:05;1.00;;;0.80;;
10659;SDS011;5378;53.206;13.316;2022-09-12T13:42:06;1.47;;;1.10;;
10659;SDS011;5378;53.206;13.316;2022-09-12T13:45:22;7.90;;;1.20;;
10659;SDS011;5378;53.206;13.316;2022-09-12T13:48:12;1.47;;;1.03;;
10659;SDS011;5378;53.206;13.316;2022-09-12T13:51:03;1.50;;;1.40;;
10659;SDS011;5378;53.206;13.316;2022-09-12T13:53:51;1.93;;;1.10;;
10659;SDS011;5378;53.206;13.316;2022-09-12T13:56:45;1.10;;;0.90;;
10659;SDS011;5378;53.206;13.316;2022-09-12T13:59:38;1.33;;;0.90;;
10659;SDS011;5378;53.206;13.316;2022-09-12T14:02:27;1.20;;;0.90;;
10659;SDS011;5378;53.206;13.316;2022-09-12T14:05:18;1.20;;;0.73;;
10659;SDS011;5378;53.206;13.316;2022-09-12T14:08:08;1.30;;;0.80;;
10659;SDS011;5378;53.206;13.316;2022-09-12T14:10:58;1.67;;;0.87;;
10659;SDS011;5378;53.206;13.316;2022-09-12T14:13:46;2.50;;;1.03;;
10659;SDS011;5378;53.206;13.316;2022-09-12T14:16:36;4.33;;;0.97;;
10659;SDS011;5378;53.206;13.316;2022-09-12T14:19:25;0.90;;;0.60;;
10659;SDS011;5378;53.206;13.316;2022-09-12T14:22:13;1.30;;;0.70;;
10659;SDS011;5378;53.206;13.316;2022-09-12T14:25:04;1.27;;;0.77;;
10659;SDS011;5378;53.206;13.316;2022-09-12T14:27:55;1.10;;;0.97;;
10659;SDS011;5378;53.206;13.316;2022-09-12T14:30:56;1.10;;;0.97;;
10659;SDS011;5378;53.206;13.316;2022-09-12T14:33:47;1.30;;;1.00;;
10659;SDS011;5378;53.206;13.316;2022-09-12T14:36:36;1.60;;;1.07;;
10659;SDS011;5378;53.206;13.316;2022-09-12T14:39:28;1.20;;;1.00;;
10659;SDS011;5378;53.206;13.316;2022-09-12T14:42:20;1.13;;;1.03;;
10659;SDS011;5378;53.206;13.316;2022-09-12T14:45:17;1.10;;;0.97;;
10659;SDS011;5378;53.206;13.316;2022-09-12T14:48:12;0.83;;;0.83;;
10659;SDS011;5378;53.206;13.316;2022-09-12T14:51:02;0.80;;;0.73;;
10659;SDS011;5378;53.206;13.316;2022-09-12T14:53:50;1.20;;;0.97;;
10659;SDS011;5378;53.206;13.316;2022-09-12T14:56:39;1.10;;;0.70;;
10659;SDS011;5378;53.206;13.316;2022-09-12T14:59:29;1.57;;;0.87;;
10659;SDS011;5378;53.206;13.316;2022-09-12T15:02:25;1.23;;;1.00;;
10659;SDS011;5378;53.206;13.316;2022-09-12T15:05:14;1.50;;;0.87;;
10659;SDS011;5378;53.206;13.316;2022-09-12T15:08:12;1.33;;;0.60;;
10659;SDS011;5378;53.206;13.316;2022-09-12T15:11:00;1.70;;;0.90;;
10659;SDS011;5378;53.206;13.316;2022-09-12T15:13:48;0.80;;;0.67;;
10659;SDS011;5378;53.206;13.316;2022-09-12T15:16:36;1.37;;;1.07;;
10659;SDS011;5378;53.206;13.316;2022-09-12T15:19:23;3.50;;;1.37;;
10659;SDS011;5378;53.206;13.316;2022-09-12T15:22:11;1.13;;;0.80;;
10659;SDS011;5378;53.206;13.316;2022-09-12T15:24:59;1.00;;;0.60;;
10659;SDS011;5378;53.206;13.316;2022-09-12T15:27:46;1.53;;;1.10;;
10659;SDS011;5378;53.206;13.316;2022-09-12T15:30:36;4.30;;;0.60;;
10659;SDS011;5378;53.206;13.316;2022-09-12T15:33:24;1.20;;;0.90;;
10659;SDS011;5378;53.206;13.316;2022-09-12T15:36:13;0.80;;;0.57;;
10659;SDS011;5378;53.206;13.316;2022-09-12T15:39:02;1.23;;;0.87;;
10659;SDS011;5378;53.206;13.316;2022-09-12T15:41:49;1.40;;;0.63;;
10659;SDS011;5378;53.206;13.316;2022-09-12T15:44:36;1.00;;;0.70;;
10659;SDS011;5378;53.206;13.316;2022-09-12T15:47:23;1.17;;;0.87;;
10659;SDS011;5378;53.206;13.316;2022-09-12T15:50:12;1.20;;;0.60;;
10659;SDS011;5378;53.206;13.316;2022-09-12T15:52:59;1.20;;;0.90;;
10659;SDS011;5378;53.206;13.316;2022-09-12T15:55:47;3.10;;;0.77;;
10659;SDS011;5378;53.206;13.316;2022-09-12T15:58:34;0.80;;;0.63;;
10659;SDS011;5378;53.206;13.316;2022-09-12T16:01:27;5.10;;;0.90;;
10659;SDS011;5378;53.206;13.316;2022-09-12T16:04:18;0.87;;;0.83;;
10659;SDS011;5378;53.206;13.316;2022-09-12T16:07:09;1.37;;;1.00;;
10659;SDS011;5378;53.206;13.316;2022-09-12T16:09:56;1.20;;;0.80;;
10659;SDS011;5378;53.206;13.316;2022-09-12T16:12:43;3.63;;;0.90;;
10659;SDS011;5378;53.206;13.316;2022-09-12T16:15:31;1.13;;;0.90;;
10659;SDS011;5378;53.206;13.316;2022-09-12T16:18:18;3.30;;;1.47;;
10659;SDS011;5378;53.206;13.316;2022-09-12T16:21:05;1.30;;;0.90;;
10659;SDS011;5378;53.206;13.316;2022-09-12T16:23:55;2.80;;;1.03;;
10659;SDS011;5378;53.206;13.316;2022-09-12T16:26:43;2.07;;;1.00;;
10659;SDS011;5378;53.206;13.316;2022-09-12T16:29:30;1.50;;;1.20;;
10659;SDS011;5378;53.206;13.316;2022-09-12T16:32:17;2.30;;;1.00;;
10659;SDS011;5378;53.206;13.316;2022-09-12T16:35:05;1.97;;;1.10;;
10659;SDS011;5378;53.206;13.316;2022-09-12T16:37:53;6.57;;;2.67;;
10659;SDS011;5378;53.206;13.316;2022-09-12T16:40:41;2.80;;;1.80;;
10659;SDS011;5378;53.206;13.316;2022-09-12T16:43:28;1.93;;;1.50;;
10659;SDS011;5378;53.206;13.316;2022-09-12T16:46:17;1.10;;;0.97;;
10659;SDS011;5378;53.206;13.316;2022-09-12T16:49:06;3.00;;;1.70;;
10659;SDS011;5378;53.206;13.316;2022-09-12T16:51:53;1.50;;;0.87;;
10659;SDS011;5378;53.206;13.316;2022-09-12T16:54:40;4.13;;;1.23;;
10659;SDS011;5378;53.206;13.316;2022-09-12T16:57:29;1.80;;;1.60;;
10659;SDS011;5378;53.206;13.316;2022-09-12T17:00:16;2.47;;;1.20;;
10659;SDS011;5378;53.206;13.316;2022-09-12T17:03:03;3.47;;;1.30;;
10659;SDS011;5378;53.206;13.316;2022-09-12T17:05:55;1.70;;;1.20;;
10659;SDS011;5378;53.206;13.316;2022-09-12T17:08:44;1.17;;;0.70;;
10659;SDS011;5378;53.206;13.316;2022-09-12T17:11:33;4.30;;;1.50;;
10659;SDS011;5378;53.206;13.316;2022-09-12T17:14:24;2.00;;;1.27;;
10659;SDS011;5378;53.206;13.316;2022-09-12T17:17:11;1.20;;;1.10;;
10659;SDS011;5378;53.206;13.316;2022-09-12T17:19:58;1.27;;;0.90;;
10659;SDS011;5378;53.206;13.316;2022-09-12T17:22:45;1.57;;;1.33;;